地図

経路データ

SID SEASON NUMBER BASIN SUBBASIN NAME ISO_TIME NATURE LAT LON WMO_WIND WMO_PRES WMO_AGENCY TRACK_TYPE DIST2LAND LANDFALL IFLAG USA_AGENCY USA_ATCF_ID USA_LAT USA_LON USA_RECORD USA_STATUS USA_WIND USA_PRES USA_SSHS USA_R34_NE USA_R34_SE USA_R34_SW USA_R34_NW USA_R50_NE USA_R50_SE USA_R50_SW USA_R50_NW USA_R64_NE USA_R64_SE USA_R64_SW USA_R64_NW USA_POCI USA_ROCI USA_RMW USA_EYE TOKYO_LAT TOKYO_LON TOKYO_GRADE TOKYO_WIND TOKYO_PRES TOKYO_R50_DIR TOKYO_R50_LONG TOKYO_R50_SHORT TOKYO_R30_DIR TOKYO_R30_LONG TOKYO_R30_SHORT TOKYO_LAND CMA_LAT CMA_LON CMA_CAT CMA_WIND CMA_PRES HKO_LAT HKO_LON HKO_CAT HKO_WIND HKO_PRES NEWDELHI_LAT NEWDELHI_LON NEWDELHI_GRADE NEWDELHI_WIND NEWDELHI_PRES NEWDELHI_CI NEWDELHI_DP NEWDELHI_POCI REUNION_LAT REUNION_LON REUNION_TYPE REUNION_WIND REUNION_PRES REUNION_TNUM REUNION_CI REUNION_RMW REUNION_R34_NE REUNION_R34_SE REUNION_R34_SW REUNION_R34_NW REUNION_R50_NE REUNION_R50_SE REUNION_R50_SW REUNION_R50_NW REUNION_R64_NE REUNION_R64_SE REUNION_R64_SW REUNION_R64_NW BOM_LAT BOM_LON BOM_TYPE BOM_WIND BOM_PRES BOM_TNUM BOM_CI BOM_RMW BOM_R34_NE BOM_R34_SE BOM_R34_SW BOM_R34_NW BOM_R50_NE BOM_R50_SE BOM_R50_SW BOM_R50_NW BOM_R64_NE BOM_R64_SE BOM_R64_SW BOM_R64_NW BOM_ROCI BOM_POCI BOM_EYE BOM_POS_METHOD BOM_PRES_METHOD NADI_LAT NADI_LON NADI_CAT NADI_WIND NADI_PRES WELLINGTON_LAT WELLINGTON_LON WELLINGTON_WIND WELLINGTON_PRES DS824_LAT DS824_LON DS824_STAGE DS824_WIND DS824_PRES TD9636_LAT TD9636_LON TD9636_STAGE TD9636_WIND TD9636_PRES TD9635_LAT TD9635_LON TD9635_WIND TD9635_PRES TD9635_ROCI NEUMANN_LAT NEUMANN_LON NEUMANN_CLASS NEUMANN_WIND NEUMANN_PRES MLC_LAT MLC_LON MLC_CLASS MLC_WIND MLC_PRES USA_GUST BOM_GUST BOM_GUST_PER REUNION_GUST REUNION_GUST_PER USA_SEAHGT USA_SEARAD_NE USA_SEARAD_SE USA_SEARAD_SW USA_SEARAD_NW STORM_SPEED STORM_DIR
1990201N12254 1990 48 EP MM HERNAN 1990-07-19 12:00:00 TS 12.0000 -106.500 25 1012 hurdat_epa main 775 775 O_____________ hurdat_epa EP091990 12.0000 -106.500 TD 25 1012 -1 9 269
1990201N12254 1990 48 EP MM HERNAN 1990-07-19 15:00:00 TS 11.9902 -106.953 main 798 798 P_____________ EP091990 11.9902 -106.953 TD 25 1012 -1 9 270
1990201N12254 1990 48 EP MM HERNAN 1990-07-19 18:00:00 TS 12.0000 -107.400 25 1012 hurdat_epa main 820 820 O_____________ hurdat_epa EP091990 12.0000 -107.400 TD 25 1012 -1 9 273
1990201N12254 1990 48 EP MM HERNAN 1990-07-19 21:00:00 TS 12.0424 -107.842 main 842 839 P_____________ EP091990 12.0424 -107.842 TD 25 1011 -1 9 276
1990201N12254 1990 48 EP MM HERNAN 1990-07-20 00:00:00 TS 12.1000 -108.300 25 1011 hurdat_epa main 864 864 O_____________ hurdat_epa EP091990 12.1000 -108.300 TD 25 1011 -1 10 276
1990201N12254 1990 48 EP MM HERNAN 1990-07-20 03:00:00 TS 12.1501 -108.823 main 888 888 P_____________ EP091990 12.1501 -108.823 TD 27 1011 -1 10 276
1990201N12254 1990 48 EP MM HERNAN 1990-07-20 06:00:00 TS 12.2000 -109.300 30 1011 hurdat_epa main 919 919 O_____________ hurdat_epa EP091990 12.2000 -109.300 TD 30 1011 -1 8 276
1990201N12254 1990 48 EP MM HERNAN 1990-07-20 09:00:00 TS 12.2348 -109.623 main 936 933 P_____________ EP091990 12.2348 -109.623 TD 30 1010 -1 6 280
1990201N12254 1990 48 EP MM HERNAN 1990-07-20 12:00:00 TS 12.3000 -109.900 30 1010 hurdat_epa main 945 942 O_____________ hurdat_epa EP091990 12.3000 -109.900 TD 30 1010 -1 6 288
1990201N12254 1990 48 EP MM HERNAN 1990-07-20 15:00:00 TS 12.4350 -110.242 main 955 952 P_____________ EP091990 12.4350 -110.242 TD 30 1009 -1 7 294
1990201N12254 1990 48 EP MM HERNAN 1990-07-20 18:00:00 TS 12.6000 -110.600 30 1008 hurdat_epa main 964 962 O_____________ hurdat_epa EP091990 12.6000 -110.600 TD 30 1008 -1 8 294
1990201N12254 1990 48 EP MM HERNAN 1990-07-20 21:00:00 TS 12.7425 -110.950 main 984 975 P_____________ EP091990 12.7425 -110.950 TD 32 1006 -1 7 294
1990201N12254 1990 48 EP MM HERNAN 1990-07-21 00:00:00 TS 12.9000 -111.300 35 1004 hurdat_epa main 989 989 O_____________ hurdat_epa EP091990 12.9000 -111.300 TS 35 1004 0 8 297
1990201N12254 1990 48 EP MM HERNAN 1990-07-21 03:00:00 TS 13.0850 -111.650 main 1004 1003 P_____________ EP091990 13.0850 -111.650 TS 40 1002 0 8 300
1990201N12254 1990 48 EP MM HERNAN 1990-07-21 06:00:00 TS 13.3000 -112.000 45 1000 hurdat_epa main 1011 1010 O_____________ hurdat_epa EP091990 13.3000 -112.000 TS 45 1000 0 8 303
1990201N12254 1990 48 EP MM HERNAN 1990-07-21 09:00:00 TS 13.5425 -112.365 main 1026 1018 P_____________ EP091990 13.5425 -112.365 TS 50 998 0 8 306
1990201N12254 1990 48 EP MM HERNAN 1990-07-21 12:00:00 TS 13.8000 -112.700 55 996 hurdat_epa main 1027 1027 O_____________ hurdat_epa EP091990 13.8000 -112.700 TS 55 996 0 8 311
1990201N12254 1990 48 EP MM HERNAN 1990-07-21 15:00:00 TS 14.0499 -112.965 main 1038 1019 P_____________ EP091990 14.0499 -112.965 TS 60 992 0 7 316
1990201N12254 1990 48 EP MM HERNAN 1990-07-21 18:00:00 TS 14.3000 -113.200 65 989 hurdat_epa main 1019 1005 O_____________ hurdat_epa EP091990 14.3000 -113.200 HU 65 989 1 7 317
1990201N12254 1990 48 EP MM HERNAN 1990-07-21 21:00:00 TS 14.5500 -113.450 main 1009 986 P_____________ EP091990 14.5500 -113.450 HU 70 983 1 7 316
1990201N12254 1990 48 EP MM HERNAN 1990-07-22 00:00:00 TS 14.8000 -113.700 75 978 hurdat_epa main 986 969 O_____________ hurdat_epa EP091990 14.8000 -113.700 HU 75 978 1 7 317
1990201N12254 1990 48 EP MM HERNAN 1990-07-22 03:00:00 TS 15.0574 -113.943 main 963 957 P_____________ EP091990 15.0574 -113.943 HU 82 971 1 7 316
1990201N12254 1990 48 EP MM HERNAN 1990-07-22 06:00:00 TS 15.3000 -114.200 90 965 hurdat_epa main 957 947 O_____________ hurdat_epa EP091990 15.3000 -114.200 HU 90 965 2 7 309
1990201N12254 1990 48 EP MM HERNAN 1990-07-22 09:00:00 TS 15.5000 -114.500 main 952 944 P_____________ EP091990 15.5000 -114.500 HU 97 959 3 7 305
1990201N12254 1990 48 EP MM HERNAN 1990-07-22 12:00:00 TS 15.7000 -114.800 105 954 hurdat_epa main 949 942 O_____________ hurdat_epa EP091990 15.7000 -114.800 HU 105 954 3 7 310
1990201N12254 1990 48 EP MM HERNAN 1990-07-22 15:00:00 TS 15.9499 -115.050 main 947 932 P_____________ EP091990 15.9499 -115.050 HU 110 949 3 7 316
1990201N12254 1990 48 EP MM HERNAN 1990-07-22 18:00:00 TS 16.2000 -115.300 115 945 hurdat_epa main 932 927 O_____________ hurdat_epa EP091990 16.2000 -115.300 HU 115 945 4 7 311
1990201N12254 1990 48 EP MM HERNAN 1990-07-22 21:00:00 TS 16.4075 -115.593 main 933 929 P_____________ EP091990 16.4075 -115.593 HU 120 942 4 7 305
1990201N12254 1990 48 EP MM HERNAN 1990-07-23 00:00:00 TS 16.6000 -115.900 125 939 hurdat_epa main 936 933 O_____________ hurdat_epa EP091990 16.6000 -115.900 HU 125 939 4 7 305
1990201N12254 1990 48 EP MM HERNAN 1990-07-23 03:00:00 TS 16.8074 -116.193 main 940 939 P_____________ EP091990 16.8074 -116.193 HU 127 936 4 7 305
1990201N12254 1990 48 EP MM HERNAN 1990-07-23 06:00:00 TS 17.0000 -116.500 130 933 hurdat_epa main 946 946 O_____________ hurdat_epa EP091990 17.0000 -116.500 HU 130 933 4 7 300
1990201N12254 1990 48 EP MM HERNAN 1990-07-23 09:00:00 TS 17.1650 -116.843 main 954 954 P_____________ EP091990 17.1650 -116.843 HU 132 931 4 7 294
1990201N12254 1990 48 EP MM HERNAN 1990-07-23 12:00:00 TS 17.3000 -117.200 135 929 hurdat_epa main 978 978 O_____________ hurdat_epa EP091990 17.3000 -117.200 HU 135 929 4 7 290
1990201N12254 1990 48 EP MM HERNAN 1990-07-23 15:00:00 TS 17.4150 -117.558 main 995 992 P_____________ EP091990 17.4150 -117.558 HU 135 928 4 7 287
1990201N12254 1990 48 EP MM HERNAN 1990-07-23 18:00:00 TS 17.5000 -117.900 135 928 hurdat_epa main 1004 1004 O_____________ hurdat_epa EP091990 17.5000 -117.900 HU 135 928 4 6 282
1990201N12254 1990 48 EP MM HERNAN 1990-07-23 21:00:00 TS 17.5499 -118.215 main 1023 1014 P_____________ EP091990 17.5499 -118.215 HU 132 928 4 6 280
1990201N12254 1990 48 EP MM HERNAN 1990-07-24 00:00:00 TS 17.6000 -118.500 130 929 hurdat_epa main 1034 1032 O_____________ hurdat_epa EP091990 17.6000 -118.500 HU 130 929 4 5 286
1990201N12254 1990 48 EP MM HERNAN 1990-07-24 03:00:00 TS 17.6999 -118.750 main 1039 1039 P_____________ EP091990 17.6999 -118.750 HU 127 931 4 5 293
1990201N12254 1990 48 EP MM HERNAN 1990-07-24 06:00:00 TS 17.8000 -119.000 125 933 hurdat_epa main 1051 1051 O_____________ hurdat_epa EP091990 17.8000 -119.000 HU 125 933 4 5 287
1990201N12254 1990 48 EP MM HERNAN 1990-07-24 09:00:00 TS 17.8575 -119.300 main 1064 1064 P_____________ EP091990 17.8575 -119.300 HU 122 936 4 6 280
1990201N12254 1990 48 EP MM HERNAN 1990-07-24 12:00:00 TS 17.9000 -119.600 120 939 hurdat_epa main 1086 1086 O_____________ hurdat_epa EP091990 17.9000 -119.600 HU 120 939 4 5 279
1990201N12254 1990 48 EP MM HERNAN 1990-07-24 15:00:00 TS 17.9424 -119.850 main 1108 1100 P_____________ EP091990 17.9424 -119.850 HU 117 942 4 5 282
1990201N12254 1990 48 EP MM HERNAN 1990-07-24 18:00:00 TS 18.0000 -120.100 115 945 hurdat_epa main 1115 1115 O_____________ hurdat_epa EP091990 18.0000 -120.100 HU 115 945 4 5 287
1990201N12254 1990 48 EP MM HERNAN 1990-07-24 21:00:00 TS 18.1000 -120.392 main 1131 1131 P_____________ EP091990 18.1000 -120.392 HU 115 947 4 6 289
1990201N12254 1990 48 EP MM HERNAN 1990-07-25 00:00:00 TS 18.2000 -120.700 115 949 hurdat_epa main 1147 1147 O_____________ hurdat_epa EP091990 18.2000 -120.700 HU 115 949 4 6 285
1990201N12254 1990 48 EP MM HERNAN 1990-07-25 03:00:00 TS 18.2575 -121.000 main 1163 1163 P_____________ EP091990 18.2575 -121.000 HU 112 950 3 6 280
1990201N12254 1990 48 EP MM HERNAN 1990-07-25 06:00:00 TS 18.3000 -121.300 110 951 hurdat_epa main 1188 1188 O_____________ hurdat_epa EP091990 18.3000 -121.300 HU 110 951 3 6 279
1990201N12254 1990 48 EP MM HERNAN 1990-07-25 09:00:00 TS 18.3499 -121.593 main 1212 1205 P_____________ EP091990 18.3499 -121.593 HU 110 951 3 6 280
1990201N12254 1990 48 EP MM HERNAN 1990-07-25 12:00:00 TS 18.4000 -121.900 110 952 hurdat_epa main 1231 1231 O_____________ hurdat_epa EP091990 18.4000 -121.900 HU 110 952 3 6 279
1990201N12254 1990 48 EP MM HERNAN 1990-07-25 15:00:00 TS 18.4425 -122.243 main 1256 1256 P_____________ EP091990 18.4425 -122.243 HU 110 953 3 7 279
1990201N12254 1990 48 EP MM HERNAN 1990-07-25 18:00:00 TS 18.5000 -122.600 110 954 hurdat_epa main 1284 1284 O_____________ hurdat_epa EP091990 18.5000 -122.600 HU 110 954 3 7 282
1990201N12254 1990 48 EP MM HERNAN 1990-07-25 21:00:00 TS 18.5849 -122.950 main 1302 1302 P_____________ EP091990 18.5849 -122.950 HU 107 954 3 7 287
1990201N12254 1990 48 EP MM HERNAN 1990-07-26 00:00:00 TS 18.7000 -123.300 105 955 hurdat_epa main 1314 1312 O_____________ hurdat_epa EP091990 18.7000 -123.300 HU 105 955 3 7 292
1990201N12254 1990 48 EP MM HERNAN 1990-07-26 03:00:00 TS 18.8499 -123.642 main 1325 1324 P_____________ EP091990 18.8499 -123.642 HU 105 955 3 7 294
1990201N12254 1990 48 EP MM HERNAN 1990-07-26 06:00:00 TS 19.0000 -124.000 105 956 hurdat_epa main 1336 1336 O_____________ hurdat_epa EP091990 19.0000 -124.000 HU 105 956 3 7 290
1990201N12254 1990 48 EP MM HERNAN 1990-07-26 09:00:00 TS 19.1074 -124.385 main 1356 1356 P_____________ EP091990 19.1074 -124.385 HU 102 958 3 8 285
1990201N12254 1990 48 EP MM HERNAN 1990-07-26 12:00:00 TS 19.2000 -124.800 100 961 hurdat_epa main 1377 1377 O_____________ hurdat_epa EP091990 19.2000 -124.800 HU 100 961 3 8 283
1990201N12254 1990 48 EP MM HERNAN 1990-07-26 15:00:00 TS 19.3000 -125.250 main 1407 1407 P_____________ EP091990 19.3000 -125.250 HU 95 964 2 9 283
1990201N12254 1990 48 EP MM HERNAN 1990-07-26 18:00:00 TS 19.4000 -125.700 90 967 hurdat_epa main 1430 1430 O_____________ hurdat_epa EP091990 19.4000 -125.700 HU 90 967 2 8 284
1990201N12254 1990 48 EP MM HERNAN 1990-07-26 21:00:00 TS 19.4999 -126.108 main 1453 1453 P_____________ EP091990 19.4999 -126.108 HU 85 969 2 8 285
1990201N12254 1990 48 EP MM HERNAN 1990-07-27 00:00:00 TS 19.6000 -126.500 80 972 hurdat_epa main 1478 1478 O_____________ hurdat_epa EP091990 19.6000 -126.500 HU 80 972 1 8 286
1990201N12254 1990 48 EP MM HERNAN 1990-07-27 03:00:00 TS 19.7074 -126.893 main 1503 1503 P_____________ EP091990 19.7074 -126.893 HU 77 974 1 8 285
1990201N12254 1990 48 EP MM HERNAN 1990-07-27 06:00:00 TS 19.8000 -127.300 75 977 hurdat_epa main 1529 1529 O_____________ hurdat_epa EP091990 19.8000 -127.300 HU 75 977 1 8 281
1990201N12254 1990 48 EP MM HERNAN 1990-07-27 09:00:00 TS 19.8575 -127.750 main 1564 1564 P_____________ EP091990 19.8575 -127.750 HU 72 979 1 9 277
1990201N12254 1990 48 EP MM HERNAN 1990-07-27 12:00:00 TS 19.9000 -128.200 70 982 hurdat_epa main 1598 1598 O_____________ hurdat_epa EP091990 19.9000 -128.200 HU 70 982 1 8 277
1990201N12254 1990 48 EP MM HERNAN 1990-07-27 15:00:00 TS 19.9573 -128.600 main 1626 1626 P_____________ EP091990 19.9573 -128.600 HU 67 984 1 8 278
1990201N12254 1990 48 EP MM HERNAN 1990-07-27 18:00:00 TS 20.0000 -129.000 65 986 hurdat_epa main 1661 1661 O_____________ hurdat_epa EP091990 20.0000 -129.000 HU 65 986 1 8 273
1990201N12254 1990 48 EP MM HERNAN 1990-07-27 21:00:00 TS 19.9999 -129.435 main 1695 1695 P_____________ EP091990 19.9999 -129.435 HU 62 988 0 8 270
1990201N12254 1990 48 EP MM HERNAN 1990-07-28 00:00:00 TS 20.0000 -129.900 60 990 hurdat_epa main 1739 1739 O_____________ hurdat_epa EP091990 20.0000 -129.900 TS 60 990 0 9 273
1990201N12254 1990 48 EP MM HERNAN 1990-07-28 03:00:00 TS 20.0425 -130.400 main 1783 1783 P_____________ EP091990 20.0425 -130.400 TS 57 991 0 9 276
1990201N12254 1990 48 EP MM HERNAN 1990-07-28 06:00:00 TS 20.1000 -130.900 55 993 hurdat_epa main 1822 1822 O_____________ hurdat_epa EP091990 20.1000 -130.900 TS 55 993 0 9 276
1990201N12254 1990 48 EP MM HERNAN 1990-07-28 09:00:00 TS 20.1423 -131.358 main 1867 1862 P_____________ EP091990 20.1423 -131.358 TS 52 994 0 9 277
1990201N12254 1990 48 EP MM HERNAN 1990-07-28 12:00:00 TS 20.2000 -131.800 50 996 hurdat_epa main 1898 1898 O_____________ hurdat_epa EP091990 20.2000 -131.800 TS 50 996 0 9 280
1990201N12254 1990 48 EP MM HERNAN 1990-07-28 15:00:00 TS 20.2849 -132.250 main 1938 1938 P_____________ EP091990 20.2849 -132.250 TS 47 997 0 9 283
1990201N12254 1990 48 EP MM HERNAN 1990-07-28 18:00:00 TS 20.4000 -132.700 45 998 hurdat_epa main 1969 1969 O_____________ hurdat_epa EP091990 20.4000 -132.700 TS 45 998 0 9 287
1990201N12254 1990 48 EP MM HERNAN 1990-07-28 21:00:00 TS 20.5424 -133.150 main 1990 1981 P_____________ EP091990 20.5424 -133.150 TS 45 999 0 9 290
1990201N12254 1990 48 EP MM HERNAN 1990-07-29 00:00:00 TS 20.7000 -133.600 45 1000 hurdat_epa main 1997 1997 O_____________ hurdat_epa EP091990 20.7000 -133.600 TS 45 1000 0 9 289
1990201N12254 1990 48 EP MM HERNAN 1990-07-29 03:00:00 TS 20.8349 -134.058 main 2020 2011 P_____________ EP091990 20.8349 -134.058 TS 42 1001 0 9 290
1990201N12254 1990 48 EP MM HERNAN 1990-07-29 06:00:00 TS 21.0000 -134.500 40 1002 hurdat_epa main 2028 2026 O_____________ hurdat_epa EP091990 21.0000 -134.500 TS 40 1002 0 9 297
1990201N12254 1990 48 EP MM HERNAN 1990-07-29 09:00:00 TS 21.2349 -134.915 main 2038 2033 P_____________ EP091990 21.2349 -134.915 TS 37 1003 0 9 304
1990201N12254 1990 48 EP MM HERNAN 1990-07-29 12:00:00 TS 21.5000 -135.300 35 1004 hurdat_epa main 2040 2011 O_____________ hurdat_epa EP091990 21.5000 -135.300 TS 35 1004 0 9 305
1990201N12254 1990 48 EP MM HERNAN 1990-07-29 15:00:00 TS 21.7274 -135.658 main 2001 1973 P_____________ EP091990 21.7274 -135.658 TS 35 1005 0 8 308
1990201N12254 1990 48 EP MM HERNAN 1990-07-29 18:00:00 TS 22.0000 -136.000 35 1006 hurdat_epa main 1973 1945 O_____________ hurdat_epa EP091990 22.0000 -136.000 TS 35 1006 0 9 315
1990201N12254 1990 48 EP MM HERNAN 1990-07-29 21:00:00 TS 22.3775 -136.357 main 1936 1911 P_____________ EP091990 22.3775 -136.357 TS 32 1007 -1 10 321
1990201N12254 1990 48 EP MM HERNAN 1990-07-30 00:00:00 TS 22.8000 -136.700 30 1008 hurdat_epa main 1911 1885 O_____________ hurdat_epa EP091990 22.8000 -136.700 TD 30 1008 -1 10 323
1990201N12254 1990 48 EP MM HERNAN 1990-07-30 03:00:00 TS 23.1924 -137.015 main 1887 1863 P_____________ EP091990 23.1924 -137.015 TD 30 1008 -1 10 325
1990201N12254 1990 48 EP MM HERNAN 1990-07-30 06:00:00 TS 23.6000 -137.300 30 1009 hurdat_epa main 1865 1844 O_____________ hurdat_epa EP091990 23.6000 -137.300 TD 30 1009 -1 10 330
1990201N12254 1990 48 EP MM HERNAN 1990-07-30 09:00:00 TS 24.0500 -137.565 main 1844 1834 P_____________ EP091990 24.0500 -137.565 TD 30 1009 -1 10 333
1990201N12254 1990 48 EP MM HERNAN 1990-07-30 12:00:00 TS 24.5000 -137.800 30 1010 hurdat_epa main 1837 1826 O_____________ hurdat_epa EP091990 24.5000 -137.800 TD 30 1010 -1 9 334
1990201N12254 1990 48 EP MM HERNAN 1990-07-30 15:00:00 TS 24.9000 -138.015 main 1829 1819 P_____________ EP091990 24.9000 -138.015 TD 27 1010 -1 9 336
1990201N12254 1990 48 EP MM HERNAN 1990-07-30 18:00:00 TS 25.3000 -138.200 25 1010 hurdat_epa main 1823 1816 O_____________ hurdat_epa EP091990 25.3000 -138.200 TD 25 1010 -1 9 340
1990201N12254 1990 48 EP MM HERNAN 1990-07-30 21:00:00 TS 25.7375 -138.357 main 1818 1818 P_____________ EP091990 25.7375 -138.357 TD 25 1010 -1 9 343
1990201N12254 1990 48 EP MM HERNAN 1990-07-31 00:00:00 TS 26.2000 -138.500 25 1011 hurdat_epa main 1827 O_____________ hurdat_epa EP091990 26.2000 -138.500 TD 25 1011 -1 10 345

IBTrACS Databaseについて

本データベースは、米国NOAAが公開する1842年以降の世界の熱帯低気圧のベストトラックデータアーカイブInternational Best Track Archive for Climate Stewardship (IBTrACS)を、ウェブで閲覧しやすい形式に変換したものです。

最終更新日:2021-10-25